Terminal Aerodrome Forecast
Issued by NWS

Home | Current Version | Previous Version | Text Only | Print | Product List | Glossary On
Versions: 1 2 3 4 5 6 7 8 9 10 11 12 13 14 15 16 17 18 19 20 21 22 23 24 25 26 27
290
FTUS43 KLSX 261152 AAA
TAFSUS
TAF AMD
KSUS 261152Z 2612/2712 20007KT 5SM -TSRA BKN050CB
      TEMPO 2612/2614 VRB30KT 1SM +TSRA BKN035CB
     FM261500 20008KT P6SM SCT050 BKN100
     FM261800 18007KT P6SM SCT040 BKN250
     FM270800 17005KT P6SM -SHRA BKN040=

USA.gov is the U.S. government's official web portal to all federal, state and local government web resources and services.